Labette, Kansas
Current Conditions -  °F | °C
As of 12:52 PM on Sunday 21 Dec 2014 (Local Time) from KPPF Reporting Station
Overcast Overcast  
Wind Chill: 42°   Ceiling: 1000
Heat Index: 46°   Visibility: 7mi
Dew Point: 43°   Wind: 8mph
Humidity: 89%   Direction: 170°S
Pressure: 29.92"   Gusts: NA
Location:  37.2003°N, 95.1784°W
Report Text: KPPF 211852Z AUTO 17007KT 7SM OVC010 08/06 A2992 RMK AO2 PRESFR SLP132 T00780061
Loading
Personal Weather Stations






























Interactive Weather Map New forecast layout! Learn more

10-Day Weather Forecast

Advertisements
Track Severe Weather on mobile